Time;durP1;ratioP1;P1;durP2;ratioP2;P2;SDS_P1;SDS_P2;PMS_P1;PMS_P2;Temp;Humidity;BMP_temperature;BMP_pressure;BME280_temperature;BME280_humidity;BME280_pressure;Samples;Min_cycle;Max_cycle;Signal;HPM_P1;HPM_P2
2023/04/28 00:02:26;;;;;;;8.80;6.10;;;21.70;53.80;;;;;;10544441;28;20055;-24
2023/04/28 00:07:30;;;;;;;10.52;6.80;;;21.60;53.70;;;;;;10561198;28;20052;-24
2023/04/28 00:12:32;;;;;;;11.00;6.43;;;21.60;53.80;;;;;;10574774;28;20051;-25
2023/04/28 00:17:34;;;;;;;;;;;21.60;53.90;;;;;;10570663;28;20075;-24
2023/04/28 00:22:37;;;;;;;9.27;6.03;;;21.40;53.90;;;;;;10579452;28;19919;-23
2023/04/28 00:27:39;;;;;;;10.07;5.28;;;21.60;53.90;;;;;;10580611;28;20050;-24
2023/04/28 00:32:41;;;;;;;11.73;7.22;;;21.60;53.90;;;;;;10563691;28;20051;-23
2023/04/28 00:37:44;;;;;;;12.73;7.55;;;21.50;53.90;;;;;;10578305;28;20056;-24
2023/04/28 00:42:46;;;;;;;10.98;6.20;;;21.40;53.90;;;;;;10577343;28;20468;-22
2023/04/28 00:47:48;;;;;;;9.13;5.38;;;21.40;54.00;;;;;;10560075;28;20054;-24
2023/04/28 00:52:51;;;;;;;7.40;4.60;;;21.50;54.00;;;;;;10578732;28;20052;-24
2023/04/28 00:57:56;;;;;;;8.32;4.43;;;21.40;53.90;;;;;;10574777;28;20518;-24
2023/04/28 01:02:58;;;;;;;10.57;6.32;;;21.40;53.90;;;;;;10569470;28;20402;-22
2023/04/28 01:08:02;;;;;;;8.35;4.72;;;21.40;53.90;;;;;;10562870;28;20104;-24
2023/04/28 01:13:03;;;;;;;10.02;4.25;;;21.30;54.10;;;;;;10557099;28;20151;-24
2023/04/28 01:18:06;;;;;;;11.98;5.68;;;21.30;54.00;;;;;;10566046;28;20079;-24
2023/04/28 01:23:13;;;;;;;;;;;21.30;54.10;;;;;;10547232;28;20075;-24
2023/04/28 01:28:16;;;;;;;7.07;3.95;;;21.30;54.10;;;;;;10570198;28;19970;-24
2023/04/28 01:33:18;;;;;;;7.85;4.72;;;21.10;54.40;;;;;;10548095;28;20552;-23
2023/04/28 01:38:20;;;;;;;7.90;4.55;;;21.30;54.20;;;;;;10559876;28;20070;-23
2023/04/28 01:43:23;;;;;;;9.38;5.40;;;21.20;54.10;;;;;;10558459;28;20127;-21
2023/04/28 01:48:25;;;;;;;9.20;5.75;;;21.20;54.20;;;;;;10569795;28;20131;-23
2023/04/28 01:53:27;;;;;;;7.25;5.05;;;21.20;54.20;;;;;;10559450;28;20079;-24
2023/04/28 01:58:30;;;;;;;5.78;3.55;;;21.20;54.10;;;;;;10564903;28;20130;-24
2023/04/28 02:03:32;;;;;;;6.57;4.63;;;21.20;54.20;;;;;;10574725;28;20477;-24
2023/04/28 02:08:34;;;;;;;6.70;3.78;;;21.20;54.20;;;;;;10550906;28;20082;-24
2023/04/28 02:13:37;;;;;;;8.60;5.15;;;21.10;54.10;;;;;;10567467;28;20215;-23
2023/04/28 02:18:39;;;;;;;5.95;4.05;;;20.80;54.50;;;;;;10565430;28;20346;-24
2023/04/28 02:23:41;;;;;;;7.95;4.60;;;21.10;54.30;;;;;;10574152;28;20077;-24
2023/04/28 02:28:44;;;;;;;6.25;3.72;;;21.00;54.30;;;;;;10554399;28;20495;-24
2023/04/28 02:33:46;;;;;;;5.40;3.65;;;21.00;54.20;;;;;;10569230;28;20480;-24
2023/04/28 02:38:48;;;;;;;9.00;5.05;;;21.00;54.30;;;;;;10556687;28;20063;-24
2023/04/28 02:43:52;;;;;;;8.23;4.50;;;21.00;54.30;;;;;;10558737;28;20595;-24
2023/04/28 02:48:53;;;;;;;7.45;4.57;;;21.00;54.40;;;;;;10564012;28;20043;-23
2023/04/28 02:53:55;;;;;;;5.97;3.67;;;21.00;54.40;;;;;;10564124;28;20082;-23
2023/04/28 02:58:58;;;;;;;8.82;5.03;;;21.00;54.20;;;;;;10570524;28;20089;-24
2023/04/28 03:04:00;;;;;;;8.15;4.38;;;20.90;54.30;;;;;;10576682;28;20043;-24
2023/04/28 03:09:02;;;;;;;8.98;5.25;;;20.90;54.40;;;;;;10576349;28;20440;-24
2023/04/28 03:14:05;;;;;;;;;;;20.90;54.40;;;;;;10573962;28;20056;-24
2023/04/28 03:19:07;;;;;;;8.85;5.13;;;20.90;54.40;;;;;;10566345;28;19974;-23
2023/04/28 03:24:09;;;;;;;6.72;4.05;;;20.90;54.40;;;;;;10537703;28;20058;-23
2023/04/28 03:29:12;;;;;;;6.68;3.95;;;20.70;54.40;;;;;;10561815;28;20376;-22
2023/04/28 03:34:14;;;;;;;8.15;3.85;;;20.80;54.40;;;;;;10562720;28;20139;-23
2023/04/28 03:39:16;;;;;;;9.00;4.00;;;20.80;54.30;;;;;;10567523;28;20061;-22
2023/04/28 03:44:19;;;;;;;5.95;3.58;;;20.80;54.50;;;;;;10552999;28;20429;-22
2023/04/28 03:49:21;;;;;;;4.95;3.38;;;20.80;54.50;;;;;;10558148;28;20146;-25
2023/04/28 03:54:23;;;;;;;5.97;3.10;;;20.70;54.50;;;;;;10554241;28;20054;-24
2023/04/28 03:59:26;;;;;;;7.20;3.63;;;20.70;54.60;;;;;;10563643;28;20069;-24
2023/04/28 04:04:28;;;;;;;6.15;3.58;;;20.60;54.90;;;;;;10559047;28;20055;-25
2023/04/28 04:09:30;;;;;;;5.22;3.50;;;20.60;54.70;;;;;;10552784;28;20064;-24
2023/04/28 04:14:33;;;;;;;4.72;3.08;;;20.60;54.70;;;;;;10557421;28;20044;-24
2023/04/28 04:19:35;;;;;;;6.30;3.65;;;20.60;54.70;;;;;;10562259;28;20115;-24
2023/04/28 04:24:37;;;;;;;6.35;3.80;;;20.70;54.50;;;;;;10564674;28;20403;-24
2023/04/28 04:29:41;;;;;;;5.57;3.70;;;20.80;54.90;;;;;;10554882;28;20565;-25
2023/04/28 04:34:43;;;;;;;7.97;4.40;;;20.80;54.30;;;;;;10550191;28;20047;-24
2023/04/28 04:39:45;;;;;;;9.25;5.22;;;20.90;54.30;;;;;;10557477;28;20126;-24
2023/04/28 04:44:48;;;;;;;5.60;3.80;;;21.00;54.30;;;;;;10550223;28;20055;-24
2023/04/28 04:49:52;;;;;;;5.43;3.90;;;21.00;54.40;;;;;;10556101;28;20047;-25
2023/04/28 04:54:55;;;;;;;7.38;4.07;;;21.00;54.40;;;;;;10561589;28;20070;-24
2023/04/28 04:59:58;;;;;;;7.05;4.28;;;21.00;54.40;;;;;;10561825;28;20073;-23
2023/04/28 05:05:00;;;;;;;4.10;2.80;;;21.10;54.50;;;;;;10568426;28;20047;-24
2023/04/28 05:10:02;;;;;;;;;;;21.10;54.60;;;;;;10578680;28;20138;-24
2023/04/28 05:15:06;;;;;;;5.13;2.93;;;21.10;54.50;;;;;;10570914;28;20062;-24
2023/04/28 05:20:09;;;;;;;7.25;4.18;;;21.10;54.60;;;;;;10563016;28;20047;-25
2023/04/28 05:25:11;;;;;;;5.05;2.67;;;21.10;54.60;;;;;;10576771;28;20078;-24
2023/04/28 05:30:15;;;;;;;2.78;1.75;;;21.10;54.70;;;;;;10543456;28;20044;-23
2023/04/28 05:35:17;;;;;;;3.00;2.40;;;21.10;54.80;;;;;;10565813;28;20044;-24
2023/04/28 05:40:19;;;;;;;8.13;4.15;;;21.10;54.90;;;;;;10555767;28;20040;-22
2023/04/28 05:45:23;;;;;;;5.45;3.53;;;21.20;54.80;;;;;;10559760;28;20512;-24
2023/04/28 05:50:24;;;;;;;7.72;4.00;;;21.10;54.90;;;;;;10573814;28;20580;-23
2023/04/28 05:55:27;;;;;;;5.43;3.33;;;21.10;54.90;;;;;;10569052;28;20569;-23
2023/04/28 06:00:30;;;;;;;;;;;21.10;55.10;;;;;;10556923;28;20048;-24
2023/04/28 06:05:32;;;;;;;7.38;4.03;;;21.20;55.10;;;;;;10565856;28;19920;-25
2023/04/28 06:10:34;;;;;;;;;;;21.20;55.10;;;;;;10554439;28;20068;-24
2023/04/28 06:15:37;;;;;;;4.85;3.30;;;21.20;55.20;;;;;;10558704;28;19930;-24
2023/04/28 06:20:39;;;;;;;8.38;4.38;;;21.10;55.10;;;;;;10575282;28;20050;-24
2023/04/28 06:25:41;;;;;;;10.15;4.68;;;21.20;55.70;;;;;;10575311;28;20888;-24
2023/04/28 06:30:44;;;;;;;7.82;4.35;;;21.20;54.90;;;;;;10554644;28;20795;-24
2023/04/28 06:35:47;;;;;;;7.53;4.25;;;21.20;55.20;;;;;;10572278;28;20053;-24
2023/04/28 06:40:48;;;;;;;;;;;21.10;55.10;;;;;;10567869;28;20797;-24
2023/04/28 06:45:52;;;;;;;4.53;2.93;;;21.20;55.00;;;;;;10556944;28;19986;-24
2023/04/28 06:50:53;;;;;;;6.63;3.85;;;21.30;54.90;;;;;;10573625;28;20144;-24
2023/04/28 06:55:56;;;;;;;7.57;4.75;;;21.20;55.00;;;;;;10566752;28;20761;-24
2023/04/28 07:00:59;;;;;;;5.93;3.83;;;21.20;55.10;;;;;;10565375;28;20035;-24
2023/04/28 07:06:02;;;;;;;5.32;3.30;;;21.20;55.20;;;;;;10568057;28;20439;-24
2023/04/28 07:11:05;;;;;;;6.30;3.63;;;21.20;55.20;;;;;;10562581;28;20090;-24
2023/04/28 07:16:09;;;;;;;5.93;3.88;;;21.10;55.20;;;;;;10571392;28;20049;-24
2023/04/28 07:21:11;;;;;;;3.78;2.97;;;21.10;55.30;;;;;;10561554;28;20404;-25
2023/04/28 07:26:15;;;;;;;5.80;3.92;;;21.00;55.30;;;;;;10569712;28;20059;-23
2023/04/28 07:31:19;;;;;;;5.00;3.22;;;21.10;55.30;;;;;;10557032;28;20084;-24
2023/04/28 07:36:21;;;;;;;4.10;3.03;;;21.10;55.40;;;;;;10567617;28;20396;-24
2023/04/28 07:41:23;;;;;;;8.40;3.22;;;21.00;55.40;;;;;;10559155;28;20742;-24
2023/04/28 07:46:27;;;;;;;4.03;2.22;;;21.10;55.30;;;;;;10566770;28;20511;-24
2023/04/28 07:51:29;;;;;;;2.78;1.60;;;21.10;55.30;;;;;;10572309;28;20078;-23
2023/04/28 07:56:31;;;;;;;2.35;1.65;;;21.10;55.40;;;;;;10572653;28;20136;-23
2023/04/28 08:01:34;;;;;;;1.95;1.50;;;21.00;55.50;;;;;;10558973;28;20468;-23
2023/04/28 08:06:37;;;;;;;6.18;3.97;;;21.00;55.80;;;;;;10571684;28;20487;-24
2023/04/28 08:11:39;;;;;;;1.73;1.23;;;20.90;56.10;;;;;;10569730;28;20054;-23
2023/04/28 08:16:42;;;;;;;3.67;1.60;;;20.90;56.10;;;;;;10565746;28;20039;-24
2023/04/28 08:21:44;;;;;;;2.05;1.40;;;21.00;56.00;;;;;;10546382;28;20063;-24
2023/04/28 08:26:46;;;;;;;;;;;20.90;56.10;;;;;;10565650;28;20117;-24
2023/04/28 08:31:50;;;;;;;1.80;1.53;;;20.90;56.10;;;;;;10567293;28;20368;-23
2023/04/28 08:36:52;;;;;;;1.70;1.60;;;20.90;56.00;;;;;;10569320;28;20814;-23
2023/04/28 08:41:54;;;;;;;2.08;1.60;;;20.90;56.00;;;;;;10559850;28;20048;-24
2023/04/28 08:47:01;;;;;;;2.10;1.90;;;20.90;55.90;;;;;;10554315;28;20133;-25
2023/04/28 08:52:09;;;;;;;6.10;4.95;;;20.70;56.80;;;;;;10562979;28;20105;-25
2023/04/28 08:57:11;;;;;;;7.43;5.45;;;20.10;59.90;;;;;;10569110;28;20075;-23
2023/04/28 09:02:14;;;;;;;;;;;19.60;62.80;;;;;;10559368;28;20464;-23
2023/04/28 09:07:16;;;;;;;13.15;9.85;;;19.00;66.40;;;;;;10570749;28;19969;-24
2023/04/28 09:12:18;;;;;;;13.10;9.38;;;17.60;83.90;;;;;;10565445;28;20031;-24
2023/04/28 09:17:21;;;;;;;11.67;8.90;;;17.20;87.90;;;;;;10560852;28;20412;-24
2023/04/28 09:22:28;;;;;;;6.25;3.03;;;16.70;88.30;;;;;;10572569;28;20897;-22
2023/04/28 09:27:30;;;;;;;8.48;3.83;;;18.00;78.40;;;;;;10577004;28;20052;-26
2023/04/28 09:32:33;;;;;;;5.85;3.25;;;16.10;94.90;;;;;;10568028;28;20469;-24
2023/04/28 09:37:36;;;;;;;6.35;3.03;;;15.30;99.90;;;;;;10572402;28;20139;-24
2023/04/28 09:42:40;;;;;;;13.70;4.32;;;16.10;99.90;;;;;;10569548;28;20047;-24
2023/04/28 09:47:45;;;;;;;10.13;4.47;;;15.40;99.90;;;;;;10569276;28;20078;-23
2023/04/28 09:52:57;;;;;;;6.97;3.47;;;15.30;99.90;;;;;;10575020;28;20051;-26
2023/04/28 09:58:04;;;;;;;12.88;5.03;;;15.30;99.90;;;;;;10553049;28;20051;-23
2023/04/28 10:03:08;;;;;;;15.43;4.07;;;14.90;99.90;;;;;;10572876;28;20071;-24
2023/04/28 10:08:12;;;;;;;8.43;2.97;;;15.50;99.90;;;;;;10575604;28;20071;-24
2023/04/28 10:13:14;;;;;;;17.52;4.60;;;15.90;99.90;;;;;;10563391;28;20048;-23
2023/04/28 10:18:17;;;;;;;10.60;3.90;;;15.10;99.90;;;;;;10565158;28;20503;-22
2023/04/28 10:23:56;;;;;;;8.05;3.15;;;15.10;99.90;;;;;;10556717;28;20075;-24
2023/04/28 10:28:58;;;;;;;8.10;3.22;;;14.60;99.90;;;;;;10560307;28;20126;-33
2023/04/28 10:34:21;;;;;;;4.97;2.27;;;13.60;99.90;;;;;;10563669;28;20067;-23
2023/04/28 10:39:24;;;;;;;6.32;2.65;;;14.20;99.90;;;;;;10557862;28;20059;-24
2023/04/28 10:44:44;;;;;;;6.57;2.25;;;13.30;99.90;;;;;;10552346;28;20052;-23
2023/04/28 10:50:10;;;;;;;4.78;2.17;;;13.80;99.90;;;;;;10559733;28;20101;-25
2023/04/28 10:55:34;;;;;;;4.50;1.48;;;13.40;99.90;;;;;;10542841;28;20388;-24
2023/04/28 11:00:37;;;;;;;2.22;1.50;;;13.90;99.90;;;;;;10558154;28;20043;-24
2023/04/28 11:06:15;;;;;;;5.53;1.30;;;13.90;99.90;;;;;;10560912;28;20173;-24
2023/04/28 11:11:23;;;;;;;1.23;0.90;;;13.70;99.90;;;;;;10567862;28;20048;-23
2023/04/28 11:16:25;;;;;;;2.17;1.38;;;13.50;99.90;;;;;;10573158;28;20051;-24
2023/04/28 11:21:28;;;;;;;2.10;1.00;;;14.10;99.90;;;;;;10555064;28;20150;-24
2023/04/28 11:26:31;;;;;;;3.72;1.40;;;13.90;99.90;;;;;;10567627;28;20075;-24
2023/04/28 11:31:33;;;;;;;2.08;1.10;;;14.30;99.90;;;;;;10546251;28;20055;-24
2023/04/28 11:36:38;;;;;;;3.00;1.37;;;14.20;99.90;;;;;;10557811;28;20040;-23
2023/04/28 11:41:42;;;;;;;3.67;1.50;;;13.60;99.90;;;;;;10557626;28;20074;-23
2023/04/28 11:46:50;;;;;;;2.35;1.63;;;13.30;99.90;;;;;;10562375;28;20036;-24
2023/04/28 11:51:53;;;;;;;3.35;2.20;;;13.40;99.90;;;;;;10564911;28;20135;-25
2023/04/28 11:56:57;;;;;;;3.25;2.28;;;13.20;99.90;;;;;;10564660;28;20052;-24
2023/04/28 12:02:02;;;;;;;6.40;3.20;;;13.00;99.90;;;;;;10557598;28;20067;-25
2023/04/28 12:07:09;;;;;;;4.07;2.25;;;13.00;99.90;;;;;;10548226;28;20611;-24
2023/04/28 12:12:13;;;;;;;8.18;3.90;;;13.50;99.90;;;;;;10551295;28;20075;-24
2023/04/28 12:17:23;;;;;;;5.22;3.25;;;13.00;99.90;;;;;;10538887;28;20492;-24
2023/04/28 12:22:28;;;;;;;9.73;3.95;;;12.90;99.90;;;;;;10549102;28;20502;-23
2023/04/28 12:27:31;;;;;;;7.90;3.72;;;13.20;99.90;;;;;;10558834;28;20044;-23
2023/04/28 12:32:42;;;;;;;11.15;5.82;;;13.30;99.90;;;;;;10542618;28;20048;-24
2023/04/28 12:37:45;;;;;;;13.80;5.88;;;13.10;99.90;;;;;;10555520;28;20472;-24
2023/04/28 12:42:47;;;;;;;7.35;4.28;;;13.10;99.90;;;;;;10556125;28;20090;-24
2023/04/28 12:47:49;;;;;;;11.30;5.50;;;13.20;99.90;;;;;;10558956;28;20048;-24
2023/04/28 12:52:52;;;;;;;10.23;6.00;;;13.00;99.90;;;;;;10562774;28;20044;-25
2023/04/28 12:57:55;;;;;;;12.70;6.32;;;13.20;99.90;;;;;;10554974;28;20603;-24
2023/04/28 13:02:57;;;;;;;14.23;6.45;;;13.20;99.90;;;;;;10558772;28;20135;-24
2023/04/28 13:08:00;;;;;;;14.70;6.75;;;13.20;99.90;;;;;;10544442;28;20083;-24
2023/04/28 13:13:04;;;;;;;12.43;6.38;;;13.10;99.90;;;;;;10561498;28;20765;-23
2023/04/28 13:18:06;;;;;;;14.40;5.65;;;13.00;99.90;;;;;;10559548;28;20092;-24
2023/04/28 13:23:09;;;;;;;11.52;5.88;;;13.20;99.90;;;;;;10541148;28;20146;-24
2023/04/28 13:28:12;;;;;;;12.75;4.47;;;13.30;99.90;;;;;;10561283;28;20054;-22
2023/04/28 13:33:14;;;;;;;10.00;4.25;;;13.70;99.90;;;;;;10562744;28;20044;-23
2023/04/28 13:38:18;;;;;;;9.68;4.18;;;13.50;99.90;;;;;;10559020;28;20043;-24
2023/04/28 13:43:20;;;;;;;9.90;4.75;;;14.30;99.90;;;;;;10564211;28;20543;-23
2023/04/28 13:48:22;;;;;;;12.70;5.57;;;14.50;99.90;;;;;;10567636;28;20048;-24
2023/04/28 13:53:25;;;;;;;16.20;4.27;;;13.90;99.90;;;;;;10568710;28;20435;-24
2023/04/28 13:58:28;;;;;;;14.32;4.40;;;14.60;99.90;;;;;;10552801;28;20075;-24
2023/04/28 14:03:29;;;;;;;;;;;14.00;99.90;;;;;;10570691;28;20586;-24
2023/04/28 14:08:33;;;;;;;13.57;4.05;;;14.50;99.90;;;;;;10570662;28;20350;-23
2023/04/28 14:13:35;;;;;;;12.00;5.20;;;13.90;99.90;;;;;;10568499;28;20050;-24
2023/04/28 14:18:37;;;;;;;7.57;2.80;;;13.80;99.90;;;;;;10565798;28;20092;-24
2023/04/28 14:23:40;;;;;;;8.90;3.28;;;14.90;99.90;;;;;;10567835;28;20071;-24
2023/04/28 14:28:42;;;;;;;14.57;3.85;;;14.20;99.90;;;;;;10567632;28;20052;-24
2023/04/28 14:33:44;;;;;;;9.13;2.72;;;14.40;99.90;;;;;;10569960;28;20097;-24
2023/04/28 14:38:47;;;;;;;13.35;3.88;;;14.30;99.90;;;;;;10568955;28;20039;-24
2023/04/28 14:43:49;;;;;;;11.57;2.72;;;14.20;99.90;;;;;;10564278;28;20082;-23
2023/04/28 14:48:51;;;;;;;12.82;3.60;;;15.00;99.90;;;;;;10566441;28;20066;-24
2023/04/28 14:53:54;;;;;;;16.50;3.30;;;14.10;99.90;;;;;;10555175;28;20066;-24
2023/04/28 14:58:56;;;;;;;12.93;3.05;;;14.80;99.90;;;;;;10556705;28;20075;-23
2023/04/28 15:03:58;;;;;;;5.77;1.80;;;14.10;99.90;;;;;;10560161;28;20116;-24
2023/04/28 15:09:01;;;;;;;18.57;5.57;;;14.80;99.90;;;;;;10556374;28;20138;-23
2023/04/28 15:14:03;;;;;;;12.90;2.85;;;14.20;99.90;;;;;;10561270;28;20486;-23
2023/04/28 15:19:05;;;;;;;13.17;3.90;;;14.80;99.90;;;;;;10554708;28;20054;-23
2023/04/28 15:24:08;;;;;;;11.13;3.37;;;14.10;99.90;;;;;;10563877;28;20492;-24
2023/04/28 15:29:11;;;;;;;6.45;1.88;;;14.70;99.90;;;;;;10559449;28;20499;-23
2023/04/28 15:34:12;;;;;;;5.68;1.50;;;15.60;99.90;;;;;;10542401;28;20441;-24
2023/04/28 15:39:16;;;;;;;14.73;3.40;;;15.40;99.90;;;;;;10551864;28;20043;-23
2023/04/28 15:44:18;;;;;;;9.25;3.08;;;14.80;99.90;;;;;;10558836;28;20078;-23
2023/04/28 15:49:20;;;;;;;7.97;2.22;;;14.80;99.90;;;;;;10557467;28;20047;-23
2023/04/28 15:54:23;;;;;;;16.52;3.17;;;15.10;99.90;;;;;;10562469;28;20054;-24
2023/04/28 15:59:25;;;;;;;10.45;3.55;;;14.90;99.90;;;;;;10566927;28;20138;-24
2023/04/28 16:04:27;;;;;;;11.60;3.20;;;13.60;99.90;;;;;;10562065;28;20130;-23
2023/04/28 16:09:32;;;;;;;11.07;4.17;;;13.20;99.90;;;;;;10564294;28;21555;-24
2023/04/28 16:14:35;;;;;;;15.95;3.83;;;12.80;99.90;;;;;;10549742;28;20059;-25
2023/04/28 16:19:36;;;;;;;;;;;12.90;99.90;;;;;;10565430;28;20139;-23
2023/04/28 16:24:42;;;;;;;8.35;3.10;;;12.90;99.90;;;;;;10562098;28;19951;-25
2023/04/28 16:29:44;;;;;;;9.02;2.88;;;12.90;99.90;;;;;;10562619;28;20441;-25
2023/04/28 16:34:46;;;;;;;5.47;3.63;;;13.40;99.90;;;;;;10560407;28;20061;-30
2023/04/28 16:39:49;;;;;;;9.63;2.47;;;13.20;99.90;;;;;;10562677;28;20455;-25
2023/04/28 16:44:51;;;;;;;8.30;3.20;;;13.50;99.90;;;;;;10549123;28;20048;-24
2023/04/28 16:49:53;;;;;;;4.10;2.30;;;12.80;99.90;;;;;;10561375;28;20135;-24
2023/04/28 16:54:57;;;;;;;7.93;2.90;;;13.10;99.90;;;;;;10566289;28;20052;-24
2023/04/28 16:59:59;;;;;;;7.22;2.88;;;14.00;99.90;;;;;;10565522;28;20047;-24
2023/04/28 17:05:01;;;;;;;14.63;4.20;;;12.90;99.90;;;;;;10556968;28;20048;-23
2023/04/28 17:10:05;;;;;;;18.90;7.23;;;12.90;99.90;;;;;;10570634;28;20118;-23
2023/04/28 17:15:08;;;;;;;16.20;6.68;;;13.00;99.90;;;;;;10560798;28;20052;-24
2023/04/28 17:20:15;;;;;;;26.63;10.98;;;12.80;99.90;;;;;;10567335;28;20120;-24
2023/04/28 17:25:18;;;;;;;36.17;12.50;;;12.50;99.90;;;;;;10561265;28;20044;-22
2023/04/28 17:30:21;;;;;;;28.30;10.88;;;12.40;99.90;;;;;;10556017;28;20043;-24
2023/04/28 17:35:23;;;;;;;51.23;19.73;;;12.70;99.90;;;;;;10563598;28;20084;-24
2023/04/28 17:40:26;;;;;;;59.03;19.83;;;12.00;99.90;;;;;;10569877;28;20138;-25
2023/04/28 17:45:28;;;;;;;47.88;17.42;;;12.10;99.90;;;;;;10558005;28;20524;-23
2023/04/28 17:50:30;;;;;;;34.65;14.20;;;12.90;99.90;;;;;;10560431;28;20094;-23
2023/04/28 17:55:33;;;;;;;26.33;9.43;;;12.80;99.90;;;;;;10567233;28;20124;-22
2023/04/28 18:00:36;;;;;;;42.05;18.88;;;14.30;99.90;;;;;;10550142;28;20535;-23
2023/04/28 18:05:38;;;;;;;41.17;17.73;;;14.90;99.90;;;;;;10567823;28;20056;-24
2023/04/28 18:10:41;;;;;;;54.72;22.15;;;15.80;99.90;;;;;;10569836;28;20089;-23
2023/04/28 18:15:45;;;;;;;25.90;10.20;;;12.90;99.90;;;;;;10558246;28;20071;-29
2023/04/28 18:20:47;;;;;;;32.17;15.25;;;15.90;99.90;;;;;;10569066;28;20051;-35
2023/04/28 18:25:50;;;;;;;38.13;15.63;;;14.70;99.90;;;;;;10560006;28;20071;-26
2023/04/28 18:35:58;;;;;;;43.33;18.30;;;13.10;99.90;;;;;;10563180;28;20047;-26
2023/04/28 18:41:11;;;;;;;38.63;17.38;;;14.60;99.90;;;;;;10561538;28;20134;-25
2023/04/28 18:46:13;;;;;;;35.33;16.30;;;13.60;99.90;;;;;;10565163;28;20056;-25
2023/04/28 18:51:15;;;;;;;34.70;15.33;;;14.30;99.90;;;;;;10559161;28;20054;-23
2023/04/28 18:56:19;;;;;;;45.40;20.20;;;14.50;99.90;;;;;;10561894;28;20477;-25
2023/04/28 19:01:23;;;;;;;29.58;11.57;;;13.50;99.90;;;;;;10573212;28;20046;-27
2023/04/28 19:06:25;;;;;;;51.28;20.73;;;15.10;99.90;;;;;;10559379;28;20473;-24
2023/04/28 19:11:29;;;;;;;45.67;18.38;;;13.80;99.90;;;;;;10561861;28;20423;-25
2023/04/28 19:16:31;;;;;;;63.05;20.60;;;14.20;99.90;;;;;;10557580;28;20125;-26
2023/04/28 19:21:34;;;;;;;57.57;20.33;;;13.20;99.90;;;;;;10554419;28;20405;-24
2023/04/28 19:26:37;;;;;;;59.22;20.40;;;13.30;99.90;;;;;;10562089;28;20044;-25
2023/04/28 19:31:39;;;;;;;54.53;20.70;;;13.50;99.90;;;;;;10552146;28;20067;-25
2023/04/28 19:36:41;;;;;;;55.87;19.47;;;13.10;99.90;;;;;;10559267;28;20044;-26
2023/04/28 19:41:46;;;;;;;28.07;10.07;;;13.00;99.90;;;;;;10553675;28;20138;-28
2023/04/28 19:46:48;;;;;;;33.20;13.48;;;13.70;99.90;;;;;;10550019;28;20046;-25
2023/04/28 19:51:50;;;;;;;44.30;17.17;;;13.30;99.90;;;;;;10550588;28;20069;-23
2023/04/28 19:56:54;;;;;;;42.78;16.60;;;13.00;99.90;;;;;;10553272;28;20070;-24
2023/04/28 20:01:56;;;;;;;29.13;12.02;;;12.90;99.90;;;;;;10555384;28;20044;-25
2023/04/28 20:06:58;;;;;;;45.55;16.98;;;13.30;99.90;;;;;;10566700;28;20063;-24
2023/04/28 20:12:03;;;;;;;46.40;18.53;;;12.50;99.90;;;;;;10555635;28;20093;-25
2023/04/28 20:17:07;;;;;;;32.53;12.65;;;12.50;99.90;;;;;;10560345;28;20052;-26
2023/04/28 20:22:09;;;;;;;26.02;10.85;;;13.30;99.90;;;;;;10567122;28;20105;-25
2023/04/28 20:27:13;;;;;;;34.03;13.03;;;13.30;99.90;;;;;;10546698;28;20454;-27
2023/04/28 20:32:15;;;;;;;26.30;8.43;;;15.50;99.90;;;;;;10568521;28;20071;-23
2023/04/28 20:37:19;;;;;;;20.53;8.77;;;15.90;99.90;;;;;;10565613;28;20504;-25
2023/04/28 20:42:22;;;;;;;16.65;8.02;;;17.10;99.40;;;;;;10556846;28;20067;-26
2023/04/28 20:47:24;;;;;;;21.63;11.30;;;16.80;99.90;;;;;;10553999;28;20425;-25
2023/04/28 20:52:27;;;;;;;30.13;13.37;;;14.70;99.90;;;;;;10561399;28;20116;-25
2023/04/28 20:57:30;;;;;;;23.55;9.75;;;15.00;99.90;;;;;;10555775;28;20055;-24
2023/04/28 21:02:32;;;;;;;18.73;8.73;;;13.50;99.90;;;;;;10559175;28;20457;-26
2023/04/28 21:07:34;;;;;;;15.37;8.03;;;14.60;99.90;;;;;;10572887;28;20071;-25
2023/04/28 21:12:37;;;;;;;16.83;5.83;;;15.50;99.90;;;;;;10562919;28;20131;-25
2023/04/28 21:17:39;;;;;;;15.52;6.50;;;14.40;99.90;;;;;;10552385;28;20430;-24
2023/04/28 21:22:41;;;;;;;14.63;6.07;;;14.90;99.90;;;;;;10556660;28;20072;-25
2023/04/28 21:27:44;;;;;;;16.70;6.33;;;14.90;99.90;;;;;;10569117;28;20127;-25
2023/04/28 21:32:46;;;;;;;12.57;4.72;;;16.50;99.90;;;;;;10570438;28;20127;-25
2023/04/28 21:37:47;;;;;;;11.50;8.25;;;16.60;99.00;;;;;;10569154;28;20052;-27
2023/04/28 21:42:51;;;;;;;11.35;5.88;;;16.10;95.90;;;;;;10567982;28;20087;-24
2023/04/28 21:47:53;;;;;;;14.30;4.65;;;15.80;99.90;;;;;;10558683;28;20100;-25
2023/04/28 21:52:55;;;;;;;14.05;7.15;;;15.90;99.40;;;;;;10564678;28;20050;-23
2023/04/28 21:57:59;;;;;;;14.05;6.25;;;14.60;99.90;;;;;;10577461;28;20529;-24
2023/04/28 22:03:01;;;;;;;18.33;10.75;;;16.40;99.40;;;;;;10567797;28;20419;-25
2023/04/28 22:08:03;;;;;;;10.10;4.65;;;14.60;99.90;;;;;;10567954;28;20089;-24
2023/04/28 22:13:06;;;;;;;13.80;6.55;;;16.70;98.60;;;;;;10561087;28;20040;-24
2023/04/28 22:18:08;;;;;;;22.90;9.20;;;17.00;92.10;;;;;;10546067;28;20044;-25
2023/04/28 22:23:10;;;;;;;19.07;10.17;;;15.60;99.90;;;;;;10562739;28;20043;-30
2023/04/28 22:28:14;;;;;;;13.00;8.10;;;15.10;96.20;;;;;;10559698;28;20079;-24
2023/04/28 22:33:16;;;;;;;10.75;5.25;;;15.10;99.90;;;;;;10557591;28;20860;-33
2023/04/28 22:38:17;;;;;;;9.90;4.93;;;15.10;99.90;;;;;;10573356;28;20071;-23
2023/04/28 22:43:21;;;;;;;16.13;7.03;;;17.80;93.10;;;;;;10559663;28;20132;-25
2023/04/28 22:48:23;;;;;;;12.98;6.47;;;17.30;95.00;;;;;;10562575;28;20488;-25
2023/04/28 22:53:25;;;;;;;12.55;5.25;;;18.20;90.10;;;;;;10565704;28;20115;-25
2023/04/28 22:58:28;;;;;;;25.73;8.75;;;17.30;93.00;;;;;;10570899;28;20126;-25
2023/04/28 23:03:30;;;;;;;12.07;6.07;;;16.70;83.10;;;;;;10565807;28;20130;-24
2023/04/28 23:08:33;;;;;;;15.45;6.65;;;17.70;91.10;;;;;;10569996;28;20089;-25
2023/04/28 23:13:37;;;;;;;12.50;6.85;;;15.40;99.90;;;;;;10563404;28;20476;-26
2023/04/28 23:18:39;;;;;;;10.43;5.97;;;16.90;95.10;;;;;;10566386;28;20754;-25
2023/04/28 23:23:41;;;;;;;25.23;7.90;;;17.20;94.90;;;;;;10570858;28;20083;-25
2023/04/28 23:28:44;;;;;;;15.80;5.85;;;16.10;90.60;;;;;;10571232;28;20075;-25
2023/04/28 23:33:46;;;;;;;16.55;7.30;;;15.80;99.90;;;;;;10554687;28;20694;-25
2023/04/28 23:38:48;;;;;;;12.90;6.87;;;15.60;97.90;;;;;;10560721;28;20079;-25
2023/04/28 23:43:52;;;;;;;15.25;6.28;;;14.00;99.90;;;;;;10563214;28;20135;-24
2023/04/28 23:48:53;;;;;;;19.98;8.35;;;14.10;99.90;;;;;;10565418;28;20436;-24
2023/04/28 23:53:55;;;;;;;16.37;7.13;;;16.90;94.40;;;;;;10561386;28;20067;-25
2023/04/28 23:58:59;;;;;;;14.40;6.82;;;16.60;96.90;;;;;;10559896;28;20680;-25
